createdAt,value
2018-11-13T00:00:45.087Z,93.80
2018-11-13T00:03:14.146Z,93.80
2018-11-13T00:05:43.335Z,93.80
2018-11-13T00:08:12.843Z,93.80
2018-11-13T00:10:41.846Z,93.80
2018-11-13T00:13:10.787Z,93.80
2018-11-13T00:15:39.791Z,93.80
2018-11-13T00:18:08.790Z,93.80
2018-11-13T00:20:37.782Z,93.80
2018-11-13T00:23:06.807Z,93.80
2018-11-13T00:25:36.074Z,93.80
2018-11-13T00:28:05.071Z,93.80
2018-11-13T00:30:34.064Z,93.80
2018-11-13T00:41:56.225Z,93.80
2018-11-13T00:44:25.200Z,93.80
2018-11-13T00:46:54.235Z,94.20
2018-11-13T00:49:23.198Z,93.80
2018-11-13T00:51:52.182Z,93.80
2018-11-13T00:54:21.161Z,93.80
2018-11-13T00:56:50.778Z,93.80
2018-11-13T00:59:19.847Z,93.80
2018-11-13T01:01:48.860Z,93.80
2018-11-13T01:04:17.770Z,93.80
2018-11-13T01:06:47.295Z,93.90
2018-11-13T01:09:16.279Z,93.80
2018-11-13T01:11:45.237Z,93.80
2018-11-13T01:14:14.246Z,93.80
2018-11-13T01:16:43.242Z,93.80
2018-11-13T01:19:12.390Z,93.80
2018-11-13T01:21:41.377Z,93.80
2018-11-13T01:24:10.412Z,93.80
2018-11-13T01:26:39.450Z,93.80
2018-11-13T01:29:08.428Z,93.80
2018-11-13T01:31:37.876Z,93.80
2018-11-13T01:34:07.184Z,93.80
2018-11-13T01:36:36.551Z,93.80
2018-11-13T01:39:08.076Z,93.80
2018-11-13T01:41:37.368Z,93.80
2018-11-13T01:44:06.883Z,93.80
2018-11-13T01:46:36.159Z,93.80
2018-11-13T01:49:05.636Z,93.80
2018-11-13T01:51:34.905Z,93.80
2018-11-13T01:54:04.281Z,93.80
2018-11-13T01:56:33.596Z,93.80
2018-11-13T01:59:03.075Z,93.80
2018-11-13T02:01:32.239Z,93.80
2018-11-13T02:04:01.552Z,93.80
2018-11-13T02:06:30.802Z,93.80
2018-11-13T02:09:00.272Z,93.80
2018-11-13T02:11:30.119Z,93.80
2018-11-13T02:13:59.367Z,93.80
2018-11-13T02:16:28.550Z,93.80
2018-11-13T02:18:57.784Z,93.80
2018-11-13T02:21:27.115Z,93.80
2018-11-13T02:23:56.325Z,93.80
2018-11-13T02:26:25.511Z,93.80
2018-11-13T02:28:54.769Z,93.80
2018-11-13T02:31:24.026Z,93.80
2018-11-13T02:33:53.303Z,93.80
2018-11-13T02:36:22.615Z,93.80
2018-11-13T02:38:51.876Z,93.70
2018-11-13T02:41:21.137Z,93.80
2018-11-13T02:43:50.399Z,93.80
2018-11-13T02:46:19.692Z,93.80
2018-11-13T02:48:49.747Z,93.90
2018-11-13T02:51:19.079Z,93.90
2018-11-13T02:53:48.373Z,93.90
2018-11-13T02:56:17.675Z,93.90
2018-11-13T02:58:46.854Z,93.90
2018-11-13T03:01:16.101Z,93.90
2018-11-13T03:03:45.522Z,93.90
2018-11-13T03:06:14.792Z,93.90
2018-11-13T03:08:44.135Z,93.90
2018-11-13T03:11:13.443Z,93.90
2018-11-13T03:13:43.002Z,94.00
2018-11-13T03:16:12.299Z,94.40
2018-11-13T03:18:41.558Z,94.00
2018-11-13T03:21:11.427Z,94.10
2018-11-13T03:23:40.778Z,94.10
2018-11-13T03:26:10.104Z,94.10
2018-11-13T03:28:39.478Z,94.10
2018-11-13T03:31:08.829Z,94.10
2018-11-13T03:33:38.309Z,94.10
2018-11-13T03:36:07.600Z,94.10
2018-11-13T03:38:36.802Z,94.10
2018-11-13T03:41:06.035Z,94.10
2018-11-13T03:43:35.387Z,94.10
2018-11-13T03:46:05.423Z,94.10
2018-11-13T03:48:35.035Z,94.10
2018-11-13T03:51:04.506Z,94.10
2018-11-13T03:53:33.618Z,94.10
2018-11-13T03:56:03.135Z,94.10
2018-11-13T03:58:32.445Z,94.10
2018-11-13T04:01:01.648Z,94.10
2018-11-13T04:03:30.926Z,94.10
2018-11-13T04:06:00.175Z,94.10
2018-11-13T04:08:29.440Z,94.10
2018-11-13T04:10:58.744Z,94.00
2018-11-13T04:13:27.990Z,94.00
2018-11-13T04:15:57.285Z,94.00
2018-11-13T04:18:27.959Z,94.00
2018-11-13T04:20:57.252Z,94.10
2018-11-13T04:23:26.455Z,94.00
2018-11-13T04:25:55.728Z,94.10
2018-11-13T04:28:24.962Z,94.00
2018-11-13T04:30:54.276Z,94.00
2018-11-13T04:33:23.565Z,94.00
2018-11-13T04:35:52.843Z,93.90
2018-11-13T04:38:22.511Z,94.00
2018-11-13T04:40:53.020Z,94.00
2018-11-13T04:43:22.278Z,94.00
2018-11-13T04:45:52.240Z,94.00
2018-11-13T04:48:21.487Z,94.00
2018-11-13T04:50:51.215Z,94.00
2018-11-13T04:53:20.512Z,94.00
2018-11-13T04:55:49.736Z,93.90
2018-11-13T04:58:18.985Z,93.80
2018-11-13T05:00:48.277Z,93.90
2018-11-13T05:03:17.565Z,93.90
2018-11-13T05:05:46.787Z,94.00
2018-11-13T05:08:16.099Z,93.90
2018-11-13T05:10:45.379Z,93.90
2018-11-13T05:13:14.643Z,93.90
2018-11-13T05:15:43.975Z,93.90
2018-11-13T05:18:13.152Z,93.90
2018-11-13T05:20:42.359Z,93.90
2018-11-13T05:23:11.685Z,93.90
2018-11-13T05:25:40.978Z,93.90
2018-11-13T05:28:10.228Z,94.00
2018-11-13T05:30:39.594Z,94.00
2018-11-13T05:33:08.964Z,94.00
2018-11-13T05:35:55.818Z,94.00
2018-11-13T05:38:25.082Z,94.00
2018-11-13T05:40:54.331Z,94.00
2018-11-13T05:43:23.596Z,94.00
2018-11-13T05:45:52.778Z,94.10
2018-11-13T05:48:22.070Z,94.10
2018-11-13T05:50:51.373Z,94.10
2018-11-13T05:53:20.566Z,94.10
2018-11-13T05:55:49.857Z,94.10
2018-11-13T05:58:19.136Z,94.10
2018-11-13T06:00:48.507Z,94.10
2018-11-13T06:03:17.823Z,94.10
2018-11-13T06:05:47.144Z,94.20
2018-11-13T06:08:18.605Z,94.10
2018-11-13T06:10:48.219Z,94.10
2018-11-13T06:13:17.496Z,94.20
2018-11-13T06:15:46.862Z,94.20
2018-11-13T06:18:16.186Z,94.20
2018-11-13T06:20:45.420Z,94.20
2018-11-13T06:23:14.924Z,94.20
2018-11-13T06:25:44.168Z,94.10
2018-11-13T06:28:13.513Z,94.10
2018-11-13T06:30:42.760Z,94.10
2018-11-13T06:33:12.005Z,94.10
2018-11-13T06:35:41.339Z,94.10
2018-11-13T06:38:10.638Z,94.20
2018-11-13T06:40:39.989Z,94.10
2018-11-13T06:43:09.134Z,94.20
2018-11-13T06:45:38.481Z,94.20
2018-11-13T06:48:07.802Z,94.20
2018-11-13T06:50:37.068Z,94.20
2018-11-13T06:53:06.357Z,94.30
2018-11-13T06:55:36.876Z,94.30
2018-11-13T06:58:06.446Z,94.30
2018-11-13T07:00:35.689Z,94.30
2018-11-13T07:03:04.928Z,94.40
2018-11-13T07:05:34.193Z,94.40
2018-11-13T07:08:03.343Z,94.40
2018-11-13T07:10:32.714Z,94.40
2018-11-13T07:13:01.932Z,94.50
2018-11-13T07:15:32.074Z,94.50
2018-11-13T07:18:20.275Z,94.50
2018-11-13T07:20:49.516Z,94.50
2018-11-13T07:23:18.692Z,94.50
2018-11-13T07:25:47.862Z,94.50
2018-11-13T07:28:17.164Z,94.50
2018-11-13T07:30:46.428Z,94.60
2018-11-13T07:33:15.683Z,94.60
2018-11-13T07:35:44.924Z,94.60
2018-11-13T07:38:14.226Z,94.60
2018-11-13T07:40:43.492Z,94.70
2018-11-13T07:43:12.763Z,94.70
2018-11-13T07:45:42.091Z,94.70
2018-11-13T07:48:11.392Z,94.70
2018-11-13T07:50:40.676Z,94.80
2018-11-13T07:53:10.012Z,94.80
2018-11-13T07:55:39.290Z,94.80
2018-11-13T07:58:08.500Z,94.80
2018-11-13T08:00:37.752Z,94.90
2018-11-13T08:03:35.548Z,94.90
2018-11-13T08:06:05.517Z,94.90
2018-11-13T08:08:34.743Z,95.00
2018-11-13T08:11:04.987Z,95.00
2018-11-13T08:13:34.934Z,95.00
2018-11-13T08:16:04.236Z,95.00
2018-11-13T08:18:33.482Z,95.00
2018-11-13T08:21:02.669Z,95.00
2018-11-13T08:23:32.887Z,95.10
2018-11-13T08:26:02.163Z,95.10
2018-11-13T08:28:31.388Z,94.90
2018-11-13T08:31:00.673Z,95.20
2018-11-13T08:33:29.791Z,95.20
2018-11-13T08:35:59.074Z,95.20
2018-11-13T08:38:28.263Z,95.30
2018-11-13T08:40:57.591Z,95.30
2018-11-13T08:43:26.912Z,95.30
2018-11-13T08:45:56.137Z,95.40
2018-11-13T08:48:25.411Z,95.50
2018-11-13T08:50:54.664Z,95.50
2018-11-13T08:53:23.920Z,95.70
2018-11-13T08:55:53.160Z,95.60
2018-11-13T08:58:22.519Z,95.60
2018-11-13T09:00:51.780Z,95.70
2018-11-13T09:03:21.061Z,95.60
2018-11-13T09:05:50.380Z,95.80
2018-11-13T09:08:19.618Z,95.90
2018-11-13T09:10:48.900Z,95.90
2018-11-13T09:13:18.228Z,96.00
2018-11-13T09:15:50.367Z,96.10
2018-11-13T09:18:19.643Z,96.10
2018-11-13T09:20:49.142Z,96.20
2018-11-13T09:23:18.444Z,96.20
2018-11-13T09:25:47.676Z,96.20
2018-11-13T09:28:16.854Z,96.20
2018-11-13T09:30:46.316Z,96.20
2018-11-13T09:33:15.376Z,96.20
2018-11-13T09:35:45.063Z,95.70
2018-11-13T09:38:14.236Z,95.70
2018-11-13T09:40:43.394Z,95.60
2018-11-13T09:43:12.547Z,95.60
2018-11-13T09:45:41.759Z,95.60
2018-11-13T09:48:11.049Z,95.50
2018-11-13T09:50:40.347Z,95.50
2018-11-13T09:53:09.619Z,95.40
2018-11-13T09:55:38.892Z,95.30
2018-11-13T09:58:08.112Z,95.30
2018-11-13T10:00:37.696Z,95.20
2018-11-13T10:03:07.353Z,95.10
2018-11-13T10:05:36.226Z,95.00
2018-11-13T10:08:05.628Z,94.90
2018-11-13T10:10:34.940Z,94.80
2018-11-13T10:13:03.991Z,94.60
2018-11-13T10:15:33.232Z,94.60
2018-11-13T10:18:02.613Z,94.60
2018-11-13T10:20:31.735Z,94.60
2018-11-13T10:23:01.000Z,94.80
2018-11-13T10:25:30.227Z,94.40
2018-11-13T10:27:59.437Z,94.30
2018-11-13T10:30:28.612Z,94.20
2018-11-13T10:32:57.779Z,94.10
2018-11-13T10:35:27.419Z,94.00
2018-11-13T10:37:56.595Z,94.00
2018-11-13T10:40:25.970Z,93.90
2018-11-13T10:42:55.280Z,94.20
2018-11-13T10:45:28.776Z,93.80
2018-11-13T10:47:58.132Z,93.70
2018-11-13T10:50:27.827Z,93.60
2018-11-13T10:52:57.093Z,93.60
2018-11-13T10:55:26.382Z,93.50
2018-11-13T10:57:55.662Z,93.40
2018-11-13T11:00:32.769Z,93.40
2018-11-13T11:03:05.846Z,93.40
2018-11-13T11:05:35.231Z,93.30
2018-11-13T11:08:04.476Z,93.30
2018-11-13T11:10:33.760Z,93.30
2018-11-13T11:13:03.171Z,93.30
2018-11-13T11:15:32.251Z,93.20
2018-11-13T11:18:01.520Z,93.20
2018-11-13T11:20:30.719Z,93.30
2018-11-13T11:22:59.984Z,93.20
2018-11-13T11:25:29.317Z,93.20
2018-11-13T11:27:58.658Z,93.10
2018-11-13T11:30:28.316Z,93.10
2018-11-13T11:32:57.530Z,93.10
2018-11-13T11:35:26.755Z,93.00
2018-11-13T11:37:55.977Z,92.90
2018-11-13T11:40:25.098Z,92.80
2018-11-13T11:42:54.372Z,92.80
2018-11-13T11:45:23.583Z,92.70
2018-11-13T11:47:52.860Z,93.00
2018-11-13T11:50:22.222Z,92.50
2018-11-13T11:52:51.469Z,92.50
2018-11-13T11:55:20.696Z,92.30
2018-11-13T11:57:49.944Z,92.20
2018-11-13T12:00:20.775Z,92.10
2018-11-13T12:02:50.032Z,91.90
2018-11-13T12:05:19.335Z,91.90
2018-11-13T12:07:48.602Z,91.70
2018-11-13T12:10:17.826Z,91.70
2018-11-13T12:12:47.148Z,91.50
2018-11-13T12:15:16.387Z,91.40
2018-11-13T12:17:46.184Z,91.30
2018-11-13T12:20:16.203Z,91.30
2018-11-13T12:22:45.761Z,91.20
2018-11-13T12:25:16.733Z,91.20
2018-11-13T12:27:45.987Z,91.20
2018-11-13T12:30:17.304Z,91.10
2018-11-13T12:32:47.352Z,91.10
2018-11-13T12:35:17.548Z,91.20
2018-11-13T12:37:47.103Z,91.20
2018-11-13T12:40:17.499Z,91.20
2018-11-13T12:42:47.614Z,91.20
2018-11-13T12:45:17.315Z,91.30
2018-11-13T12:47:46.585Z,91.40
2018-11-13T12:50:17.324Z,91.40
2018-11-13T12:52:46.500Z,91.50
2018-11-13T12:55:17.415Z,91.60
2018-11-13T12:57:46.726Z,91.70
2018-11-13T13:00:20.551Z,91.80
2018-11-13T13:02:49.783Z,92.00
2018-11-13T13:05:19.002Z,92.20
2018-11-13T13:07:48.259Z,92.30
2018-11-13T13:10:18.772Z,92.40
2018-11-13T13:12:48.101Z,92.50
2018-11-13T13:15:17.976Z,92.60
2018-11-13T13:17:47.289Z,92.60
2018-11-13T13:20:21.072Z,92.60
2018-11-13T13:22:54.267Z,92.60
2018-11-13T13:25:29.402Z,92.50
2018-11-13T13:27:59.055Z,92.40
2018-11-13T13:30:28.331Z,92.40
2018-11-13T13:32:57.504Z,92.20
2018-11-13T13:35:36.955Z,92.20
2018-11-13T13:38:07.317Z,92.20
2018-11-13T13:40:37.172Z,92.30
2018-11-13T13:43:07.040Z,92.30
2018-11-13T13:45:36.303Z,91.90
2018-11-13T13:48:06.893Z,91.70
2018-11-13T13:50:42.327Z,91.60
2018-11-13T13:53:12.847Z,91.40
2018-11-13T13:55:42.447Z,91.30
2018-11-13T13:58:12.040Z,91.20
2018-11-13T14:00:41.336Z,91.20
2018-11-13T14:03:11.319Z,91.20
2018-11-13T14:05:41.019Z,91.10
2018-11-13T14:08:11.163Z,91.10
2018-11-13T14:10:40.364Z,91.00
2018-11-13T14:13:09.595Z,91.00
2018-11-13T14:15:38.883Z,90.90
2018-11-13T14:18:08.307Z,90.90
2018-11-13T14:20:37.484Z,90.80
2018-11-13T14:23:06.819Z,90.70
2018-11-13T14:25:36.013Z,90.60
2018-11-13T14:28:05.303Z,90.60
2018-11-13T14:30:35.703Z,90.40
2018-11-13T14:33:06.159Z,90.30
2018-11-13T14:35:35.381Z,90.50
2018-11-13T14:38:04.821Z,90.20
2018-11-13T14:40:42.652Z,90.00
2018-11-13T14:43:12.315Z,90.00
2018-11-13T14:45:41.563Z,90.00
2018-11-13T14:48:11.459Z,90.00
2018-11-13T14:50:44.668Z,90.00
2018-11-13T14:53:14.174Z,90.00
2018-11-13T14:55:44.714Z,90.00
2018-11-13T14:58:16.887Z,89.70
2018-11-13T15:00:46.143Z,89.60
2018-11-13T15:03:16.606Z,89.70
2018-11-13T15:05:45.779Z,89.50
2018-11-13T15:08:15.056Z,89.50
2018-11-13T15:11:00.555Z,89.60
2018-11-13T15:13:29.785Z,89.70
2018-11-13T15:15:58.958Z,89.70
2018-11-13T15:18:28.182Z,89.70
2018-11-13T15:20:57.407Z,89.70
2018-11-13T15:23:26.630Z,89.60
2018-11-13T15:25:55.830Z,89.60
2018-11-13T15:28:25.044Z,89.50
2018-11-13T15:30:54.269Z,90.20
2018-11-13T15:33:24.904Z,89.90
2018-11-13T15:35:54.579Z,90.00
2018-11-13T15:38:23.804Z,90.00
2018-11-13T15:40:53.085Z,90.00
2018-11-13T15:43:22.317Z,90.10
2018-11-13T15:45:51.867Z,90.10
2018-11-13T15:48:21.220Z,90.10
2018-11-13T15:50:50.524Z,90.20
2018-11-13T15:53:19.788Z,90.20
2018-11-13T15:55:50.190Z,90.30
2018-11-13T15:58:20.058Z,90.30
2018-11-13T16:00:50.693Z,90.40
2018-11-13T16:03:22.782Z,90.50
2018-11-13T16:05:53.292Z,90.60
2018-11-13T16:08:23.032Z,91.10
2018-11-13T16:10:52.295Z,91.20
2018-11-13T16:13:23.219Z,91.20
2018-11-13T16:15:54.026Z,91.30
2018-11-13T16:18:43.602Z,91.30
2018-11-13T16:21:13.987Z,91.40
2018-11-13T16:23:43.704Z,91.30
2018-11-13T16:26:14.363Z,91.40
2018-11-13T16:28:43.780Z,91.50
2018-11-13T16:31:13.148Z,91.50
2018-11-13T16:33:42.592Z,91.60
2018-11-13T16:36:11.987Z,91.60
2018-11-13T16:38:42.995Z,91.70
2018-11-13T16:41:12.688Z,91.70
2018-11-13T16:43:42.711Z,91.70
2018-11-13T16:46:13.033Z,91.70
2018-11-13T16:48:42.839Z,91.80
2018-11-13T16:51:12.147Z,91.90
2018-11-13T16:53:46.535Z,91.90
2018-11-13T16:56:15.948Z,91.90
2018-11-13T16:58:45.151Z,91.90
2018-11-13T17:01:14.375Z,92.00
2018-11-13T17:03:43.759Z,92.00
2018-11-13T17:06:13.026Z,92.00
2018-11-13T17:08:42.304Z,92.10
2018-11-13T17:11:11.671Z,92.10
2018-11-13T17:13:44.058Z,92.10
2018-11-13T17:16:13.291Z,92.00
2018-11-13T17:18:42.504Z,91.90
2018-11-13T17:21:11.775Z,91.80
2018-11-13T17:23:40.995Z,91.80
2018-11-13T17:26:10.257Z,91.90
2018-11-13T17:28:39.509Z,91.90
2018-11-13T17:31:08.741Z,92.00
2018-11-13T17:33:38.066Z,92.10
2018-11-13T17:36:07.532Z,92.10
2018-11-13T17:38:36.827Z,92.30
2018-11-13T17:41:06.104Z,92.30
2018-11-13T17:43:35.438Z,92.40
2018-11-13T17:46:05.004Z,92.50
2018-11-13T17:48:34.332Z,92.60
2018-11-13T17:51:04.063Z,92.80
2018-11-13T17:53:33.443Z,92.80
2018-11-13T17:56:02.607Z,92.90
2018-11-13T17:58:31.875Z,92.90
2018-11-13T18:01:01.299Z,93.00
2018-11-13T18:03:30.548Z,93.00
2018-11-13T18:05:59.791Z,93.00
2018-11-13T18:08:29.085Z,93.00
2018-11-13T18:10:58.351Z,93.10
2018-11-13T18:13:27.599Z,93.10
2018-11-13T18:15:56.948Z,93.20
2018-11-13T18:18:26.291Z,93.30
2018-11-13T18:20:55.642Z,93.50
2018-11-13T18:23:24.939Z,93.60
2018-11-13T18:25:54.142Z,93.70
2018-11-13T18:28:23.637Z,93.70
2018-11-13T18:30:52.764Z,93.70
2018-11-13T18:33:21.920Z,93.70
2018-11-13T18:35:51.235Z,93.70
2018-11-13T18:38:20.634Z,93.70
2018-11-13T18:40:49.882Z,93.70
2018-11-13T18:43:19.036Z,93.70
2018-11-13T18:45:48.336Z,93.70
2018-11-13T18:48:17.634Z,93.70
2018-11-13T18:50:47.068Z,93.70
2018-11-13T18:53:16.335Z,93.70
2018-11-13T18:55:45.619Z,93.70
2018-11-13T18:58:14.906Z,93.60
2018-11-13T19:00:44.252Z,93.60
2018-11-13T19:03:13.856Z,93.60
2018-11-13T19:05:43.495Z,93.60
2018-11-13T19:08:12.745Z,93.50
2018-11-13T19:10:46.156Z,93.50
2018-11-13T19:13:19.780Z,93.50
2018-11-13T19:15:51.690Z,93.50
2018-11-13T19:18:21.707Z,93.50
2018-11-13T19:20:51.144Z,93.50
2018-11-13T19:23:21.124Z,93.50
2018-11-13T19:25:50.669Z,93.50
2018-11-13T19:28:20.015Z,93.50
2018-11-13T19:30:49.219Z,93.60
2018-11-13T19:33:18.681Z,93.60
2018-11-13T19:35:48.106Z,93.60
2018-11-13T19:38:17.252Z,93.50
2018-11-13T19:40:46.506Z,93.50
2018-11-13T19:43:16.475Z,93.50
2018-11-13T19:45:45.472Z,93.90
2018-11-13T19:48:14.837Z,93.60
2018-11-13T19:50:44.014Z,93.70
2018-11-13T19:53:13.363Z,93.70
2018-11-13T19:55:42.812Z,93.70
2018-11-13T19:58:12.123Z,93.80
2018-11-13T20:00:41.331Z,93.80
2018-11-13T20:03:11.512Z,93.90
2018-11-13T20:05:41.335Z,93.90
2018-11-13T20:08:11.093Z,93.80
2018-11-13T20:10:40.940Z,93.70
2018-11-13T20:13:10.906Z,93.60
2018-11-13T20:15:40.625Z,93.60
2018-11-13T20:18:10.548Z,93.50
2018-11-13T20:20:39.895Z,93.50
2018-11-13T20:23:10.141Z,93.40
2018-11-13T20:25:39.648Z,93.40
2018-11-13T20:28:09.296Z,93.40
2018-11-13T20:30:40.680Z,93.40
2018-11-13T20:33:10.680Z,93.50
2018-11-13T20:35:40.139Z,93.50
2018-11-13T20:38:10.103Z,93.50
2018-11-13T20:40:39.664Z,93.50
2018-11-13T20:43:10.827Z,93.50
2018-11-13T20:45:40.162Z,93.50
2018-11-13T20:48:09.736Z,93.60
2018-11-13T20:50:39.244Z,93.60
2018-11-13T20:53:08.539Z,93.70
2018-11-13T20:55:38.195Z,93.60
2018-11-13T20:58:07.851Z,93.70
2018-11-13T21:00:37.651Z,93.70
2018-11-13T21:03:07.553Z,93.70
2018-11-13T21:05:37.119Z,93.70
2018-11-13T21:08:06.607Z,93.80
2018-11-13T21:10:37.637Z,93.80
2018-11-13T21:13:08.505Z,93.90
2018-11-13T21:15:38.056Z,93.90
2018-11-13T21:18:11.184Z,93.90
2018-11-13T21:20:40.568Z,93.90
2018-11-13T21:23:09.824Z,94.00
2018-11-13T21:25:39.152Z,94.00
2018-11-13T21:28:08.396Z,94.00
2018-11-13T21:30:37.912Z,94.00
2018-11-13T21:33:07.380Z,94.00
2018-11-13T21:35:36.887Z,94.00
2018-11-13T21:38:17.434Z,94.00
2018-11-13T21:40:46.989Z,94.10
2018-11-13T21:43:16.300Z,94.10
2018-11-13T21:45:45.534Z,94.10
2018-11-13T21:48:19.908Z,94.10
2018-11-13T21:50:50.411Z,94.20
2018-11-13T21:53:19.580Z,94.20
2018-11-13T21:55:48.776Z,94.20
2018-11-13T21:58:19.947Z,94.30
2018-11-13T22:00:49.535Z,94.30
2018-11-13T22:03:18.780Z,94.30
2018-11-13T22:05:48.023Z,94.30
2018-11-13T22:08:17.371Z,94.40
2018-11-13T22:10:46.568Z,94.40
2018-11-13T22:13:15.771Z,94.40
2018-11-13T22:15:45.044Z,94.40
2018-11-13T22:18:14.344Z,94.40
2018-11-13T22:20:44.003Z,94.50
2018-11-13T22:23:12.887Z,94.50
2018-11-13T22:25:59.399Z,94.50
2018-11-13T22:28:28.835Z,94.50
2018-11-13T22:30:58.062Z,94.50
2018-11-13T22:33:37.415Z,94.50
2018-11-13T22:36:09.564Z,94.50
2018-11-13T22:38:38.876Z,94.50
2018-11-13T22:41:08.248Z,94.50
2018-11-13T22:43:39.813Z,94.60
2018-11-13T22:46:09.123Z,94.60
2018-11-13T22:48:38.428Z,94.60
2018-11-13T22:51:07.776Z,94.60
2018-11-13T22:53:37.145Z,94.60
2018-11-13T22:56:06.624Z,94.60
2018-11-13T22:58:35.936Z,94.60
2018-11-13T23:01:05.666Z,94.60
2018-11-13T23:03:34.973Z,94.60
2018-11-13T23:06:04.336Z,94.60
2018-11-13T23:08:33.539Z,94.60
2018-11-13T23:11:07.890Z,94.60
2018-11-13T23:13:37.231Z,94.70
2018-11-13T23:16:06.950Z,94.70
2018-11-13T23:18:36.314Z,94.80
2018-11-13T23:21:05.713Z,94.80
2018-11-13T23:23:35.099Z,94.90
2018-11-13T23:26:04.413Z,94.90
2018-11-13T23:28:33.692Z,94.90
2018-11-13T23:31:02.929Z,94.90
2018-11-13T23:33:32.208Z,94.90
2018-11-13T23:36:01.592Z,94.90
2018-11-13T23:38:30.880Z,94.90
2018-11-13T23:41:00.158Z,94.90
2018-11-13T23:43:29.445Z,95.00
2018-11-13T23:45:58.701Z,95.00
2018-11-13T23:48:28.002Z,95.00
2018-11-13T23:50:57.154Z,95.00
2018-11-13T23:53:26.463Z,95.00
2018-11-13T23:55:55.812Z,95.00
2018-11-13T23:58:25.066Z,95.10
